Time;durP1;ratioP1;P1;durP2;ratioP2;P2;SDS_P1;SDS_P2;PMS_P1;PMS_P2;Temp;Humidity;BMP_temperature;BMP_pressure;BME280_temperature;BME280_humidity;BME280_pressure;Samples;Min_cycle;Max_cycle;Signal;HPM_P1;HPM_P2
2023/06/28 00:01:00;;;;;;;4.80;2.13;;;15.00;99.90;;;;;;5025166;28;20287;-63
2023/06/28 00:03:27;;;;;;;5.93;1.60;;;14.80;99.90;;;;;;5020740;28;20259;-63
2023/06/28 00:05:55;;;;;;;3.55;2.70;;;15.00;99.90;;;;;;5028914;28;20209;-64
2023/06/28 00:08:22;;;;;;;3.05;2.05;;;15.00;99.90;;;;;;5040663;28;20197;-64
2023/06/28 00:10:50;;;;;;;9.77;2.38;;;15.00;99.90;;;;;;5013802;28;21053;-63
2023/06/28 00:13:16;;;;;;;8.43;2.67;;;14.30;99.90;;;;;;5043124;28;20197;-63
2023/06/28 00:15:43;;;;;;;10.32;2.72;;;15.00;99.90;;;;;;5012055;28;20216;-63
2023/06/28 00:18:10;;;;;;;6.15;2.70;;;14.90;99.90;;;;;;5026156;28;20204;-63
2023/06/28 00:20:37;;;;;;;4.82;2.40;;;14.90;99.90;;;;;;5027845;28;20201;-63
2023/06/28 00:23:05;;;;;;;5.57;2.33;;;14.90;99.90;;;;;;5041462;28;20228;-63
2023/06/28 00:25:32;;;;;;;5.90;2.60;;;14.70;99.90;;;;;;5021369;28;20327;-63
2023/06/28 00:27:59;;;;;;;4.75;2.38;;;14.70;99.90;;;;;;5040072;28;20302;-63
2023/06/28 00:30:26;;;;;;;7.13;2.50;;;14.70;99.90;;;;;;5013210;28;20232;-63
2023/06/28 00:32:53;;;;;;;7.95;2.22;;;14.70;99.90;;;;;;5044512;28;20205;-63
2023/06/28 00:35:20;;;;;;;10.50;2.42;;;14.70;99.90;;;;;;5017458;28;20215;-63
2023/06/28 00:37:46;;;;;;;5.53;2.13;;;14.60;99.90;;;;;;5044592;28;20201;-66
2023/06/28 00:40:15;;;;;;;7.93;2.60;;;14.70;99.90;;;;;;5030407;28;20202;-63
2023/06/28 00:42:41;;;;;;;8.38;2.65;;;14.70;99.90;;;;;;5032622;28;20228;-63
2023/06/28 00:45:12;;;;;;;3.00;2.58;;;14.50;99.90;;;;;;5006364;28;20212;-63
2023/06/28 00:47:40;;;;;;;4.72;2.60;;;14.70;99.90;;;;;;5045542;28;20220;-63
2023/06/28 00:50:07;;;;;;;6.35;3.25;;;14.50;99.90;;;;;;5028358;28;20212;-63
2023/06/28 00:52:34;;;;;;;6.72;2.90;;;14.50;99.90;;;;;;5033664;28;20228;-63
2023/06/28 00:55:01;;;;;;;6.90;2.70;;;14.60;99.90;;;;;;5030844;28;20197;-63
2023/06/28 00:57:30;;;;;;;5.47;2.58;;;14.50;99.90;;;;;;5035076;28;20685;-63
2023/06/28 00:59:59;;;;;;;5.75;2.50;;;14.60;99.90;;;;;;5020338;28;20283;-63
2023/06/28 01:02:26;;;;;;;7.35;2.72;;;14.60;99.90;;;;;;5025233;28;20240;-63
2023/06/28 01:04:57;;;;;;;5.57;2.67;;;14.80;99.90;;;;;;5031359;28;20704;-64
2023/06/28 01:07:27;;;;;;;5.75;2.40;;;14.60;99.90;;;;;;5019844;28;20201;-63
2023/06/28 01:09:56;;;;;;;8.48;3.35;;;14.50;99.90;;;;;;5035638;28;20222;-63
2023/06/28 01:12:23;;;;;;;3.83;2.67;;;14.50;99.90;;;;;;5029064;28;20219;-63
2023/06/28 01:14:51;;;;;;;6.82;2.53;;;14.40;99.90;;;;;;5027177;28;20209;-63
2023/06/28 01:17:19;;;;;;;7.88;2.97;;;14.50;99.90;;;;;;5007035;28;20209;-63
2023/06/28 01:19:46;;;;;;;8.82;2.97;;;14.40;99.90;;;;;;5033183;28;20219;-63
2023/06/28 01:22:14;;;;;;;7.60;3.30;;;14.40;99.90;;;;;;5018587;28;20212;-64
2023/06/28 01:24:46;;;;;;;9.10;3.30;;;14.30;99.90;;;;;;5034245;28;20713;-63
2023/06/28 01:27:13;;;;;;;7.20;2.55;;;14.30;99.90;;;;;;5030679;28;20578;-63
2023/06/28 01:29:42;;;;;;;4.03;3.00;;;14.30;99.90;;;;;;5030693;28;20209;-63
2023/06/28 01:32:09;;;;;;;9.02;3.08;;;14.30;99.90;;;;;;5005421;28;20765;-63
2023/06/28 01:34:36;;;;;;;9.00;3.28;;;14.30;99.90;;;;;;5033393;28;20207;-63
2023/06/28 01:37:05;;;;;;;7.53;2.92;;;14.30;99.90;;;;;;5025469;28;21203;-64
2023/06/28 01:39:33;;;;;;;10.27;3.33;;;14.20;99.90;;;;;;5025821;28;20204;-64
2023/06/28 01:42:02;;;;;;;8.30;3.22;;;14.20;99.90;;;;;;5026035;28;20209;-63
2023/06/28 01:44:30;;;;;;;5.30;2.97;;;14.20;99.90;;;;;;5028177;28;20224;-63
2023/06/28 01:46:57;;;;;;;5.50;3.30;;;14.20;99.90;;;;;;5007557;28;20771;-63
2023/06/28 01:49:25;;;;;;;4.80;2.90;;;14.20;99.90;;;;;;5038174;28;20205;-63
2023/06/28 01:51:53;;;;;;;5.53;3.10;;;14.30;99.90;;;;;;5024726;28;20236;-64
2023/06/28 01:54:20;;;;;;;4.93;3.20;;;14.30;99.90;;;;;;5028199;28;20201;-63
2023/06/28 01:56:46;;;;;;;8.27;3.40;;;14.20;99.90;;;;;;5037440;28;20193;-63
2023/06/28 01:59:15;;;;;;;12.13;3.67;;;14.20;99.90;;;;;;5027255;28;20666;-63
2023/06/28 02:01:44;;;;;;;7.93;3.42;;;14.20;99.90;;;;;;5023492;28;20778;-63
2023/06/28 02:04:11;;;;;;;4.45;3.17;;;14.20;99.90;;;;;;5007669;28;20232;-63
2023/06/28 02:06:39;;;;;;;7.75;3.60;;;14.00;99.90;;;;;;5029086;28;20201;-64
2023/06/28 02:09:06;;;;;;;5.65;3.00;;;14.20;99.90;;;;;;5033727;28;20228;-64
2023/06/28 02:11:33;;;;;;;7.95;3.45;;;14.10;99.90;;;;;;5026994;28;20201;-64
2023/06/28 02:14:00;;;;;;;9.50;3.42;;;14.10;99.90;;;;;;5028952;28;20204;-63
2023/06/28 02:16:31;;;;;;;7.30;3.60;;;14.10;99.90;;;;;;5030853;28;20229;-64
2023/06/28 02:18:58;;;;;;;6.72;3.20;;;14.10;99.90;;;;;;5007459;28;20909;-63
2023/06/28 02:21:26;;;;;;;8.10;2.88;;;14.10;99.90;;;;;;5036465;28;20197;-63
2023/06/28 02:23:52;;;;;;;8.00;3.30;;;14.10;99.90;;;;;;5029565;28;20227;-63
2023/06/28 02:26:19;;;;;;;7.53;3.75;;;14.20;99.90;;;;;;5031723;28;20235;-63
2023/06/28 02:28:46;;;;;;;3.30;2.95;;;13.80;99.90;;;;;;5029734;28;20583;-63
2023/06/28 02:31:13;;;;;;;10.50;3.08;;;14.20;99.90;;;;;;5051810;28;20197;-63
2023/06/28 02:33:41;;;;;;;4.75;3.30;;;14.20;99.90;;;;;;5007461;28;20228;-63
2023/06/28 02:36:08;;;;;;;9.88;3.50;;;14.20;99.90;;;;;;5049982;28;20687;-63
2023/06/28 02:38:35;;;;;;;12.25;3.53;;;14.20;99.90;;;;;;5036392;28;20592;-63
2023/06/28 02:41:02;;;;;;;10.35;3.60;;;14.10;99.90;;;;;;5049741;28;20208;-63
2023/06/28 02:43:29;;;;;;;7.25;3.42;;;14.20;99.90;;;;;;5040757;28;20228;-63
2023/06/28 02:45:56;;;;;;;8.25;3.97;;;14.20;99.90;;;;;;5036515;28;20600;-63
2023/06/28 02:48:23;;;;;;;8.85;4.03;;;14.20;99.90;;;;;;5027960;28;20200;-63
2023/06/28 02:50:51;;;;;;;5.43;3.25;;;14.10;99.90;;;;;;5031631;28;20204;-63
2023/06/28 02:53:18;;;;;;;11.50;3.90;;;14.10;99.90;;;;;;5048627;28;20204;-64
2023/06/28 02:55:45;;;;;;;9.68;3.70;;;14.10;99.90;;;;;;5036157;28;20193;-63
2023/06/28 02:58:13;;;;;;;7.88;3.53;;;14.10;99.90;;;;;;5037191;28;20196;-63
2023/06/28 03:00:41;;;;;;;9.30;3.35;;;13.90;99.90;;;;;;5022111;28;20208;-63
2023/06/28 03:03:09;;;;;;;8.75;3.95;;;14.00;99.90;;;;;;5037501;28;20224;-64
2023/06/28 03:05:36;;;;;;;6.35;3.17;;;14.00;99.90;;;;;;5014089;28;20883;-63
2023/06/28 03:08:05;;;;;;;7.47;3.38;;;13.90;99.90;;;;;;5024401;28;21131;-63
2023/06/28 03:10:33;;;;;;;6.68;3.90;;;14.00;99.90;;;;;;5030825;28;20233;-63
2023/06/28 03:13:00;;;;;;;4.13;3.47;;;14.00;99.90;;;;;;5033649;28;20207;-63
2023/06/28 03:15:27;;;;;;;7.70;3.58;;;14.00;99.90;;;;;;5012216;28;20865;-63
2023/06/28 03:17:54;;;;;;;10.88;4.05;;;14.10;99.90;;;;;;5031716;28;20200;-63
2023/06/28 03:20:21;;;;;;;8.85;3.47;;;14.10;99.90;;;;;;5010841;28;20208;-63
2023/06/28 03:22:49;;;;;;;9.27;3.42;;;14.00;99.90;;;;;;5035178;28;20212;-64
2023/06/28 03:25:17;;;;;;;5.35;3.60;;;14.10;99.90;;;;;;5030707;28;20232;-63
2023/06/28 03:27:44;;;;;;;8.77;3.40;;;14.00;99.90;;;;;;5029004;28;20210;-63
2023/06/28 03:30:11;;;;;;;9.18;3.30;;;14.10;99.90;;;;;;5026153;28;20218;-63
2023/06/28 03:32:38;;;;;;;7.40;3.83;;;14.00;99.90;;;;;;5026337;28;20201;-63
2023/06/28 03:35:06;;;;;;;9.73;4.10;;;14.10;99.90;;;;;;5007609;28;20216;-63
2023/06/28 03:37:33;;;;;;;8.45;3.72;;;14.90;99.90;;;;;;5041410;28;20192;-63
2023/06/28 03:40:00;;;;;;;7.50;3.28;;;14.20;99.90;;;;;;5043798;28;20201;-63
2023/06/28 03:42:28;;;;;;;4.85;3.15;;;14.20;99.90;;;;;;5027413;28;20210;-63
2023/06/28 03:44:55;;;;;;;8.80;3.80;;;14.20;99.90;;;;;;5022579;28;20618;-63
2023/06/28 03:47:22;;;;;;;6.10;3.67;;;14.30;99.90;;;;;;5030890;28;20557;-63
2023/06/28 03:49:49;;;;;;;15.68;4.88;;;14.30;99.90;;;;;;5036817;28;20200;-64
2023/06/28 03:52:16;;;;;;;6.78;3.85;;;14.30;99.90;;;;;;5006452;28;20201;-63
2023/06/28 03:54:43;;;;;;;9.32;3.92;;;14.50;99.90;;;;;;5020706;28;20197;-63
2023/06/28 03:57:10;;;;;;;5.60;3.80;;;14.40;99.90;;;;;;5025939;28;20201;-63
2023/06/28 03:59:38;;;;;;;6.63;3.35;;;14.60;99.90;;;;;;5012845;28;20210;-63
2023/06/28 04:02:05;;;;;;;10.48;3.60;;;14.60;99.90;;;;;;5023106;28;20936;-63
2023/06/28 04:04:33;;;;;;;8.40;3.70;;;14.60;99.90;;;;;;5026506;28;20229;-63
2023/06/28 04:07:01;;;;;;;6.60;3.80;;;14.60;99.90;;;;;;5006363;28;20225;-64
2023/06/28 04:09:28;;;;;;;13.73;4.60;;;14.60;99.90;;;;;;5037619;28;20201;-63
2023/06/28 04:11:55;;;;;;;9.23;4.00;;;14.70;99.90;;;;;;5026150;28;20717;-63
2023/06/28 04:14:23;;;;;;;7.18;3.65;;;14.80;99.90;;;;;;4994886;28;20229;-63
2023/06/28 04:16:51;;;;;;;9.82;3.67;;;14.80;99.90;;;;;;5020389;28;20778;-64
2023/06/28 04:19:18;;;;;;;8.85;3.70;;;14.90;99.90;;;;;;5017702;28;22319;-63
2023/06/28 04:21:45;;;;;;;7.25;3.40;;;15.00;99.90;;;;;;5027017;28;20201;-64
2023/06/28 04:24:12;;;;;;;7.68;3.42;;;15.00;99.90;;;;;;5012965;28;20243;-63
2023/06/28 04:26:39;;;;;;;7.00;3.92;;;15.00;99.90;;;;;;5036910;28;20224;-64
2023/06/28 04:29:06;;;;;;;6.03;3.70;;;15.00;99.90;;;;;;5025752;28;20212;-63
2023/06/28 04:31:33;;;;;;;8.07;3.75;;;15.10;99.90;;;;;;5018954;28;20202;-63
2023/06/28 04:34:02;;;;;;;8.20;3.90;;;15.10;99.90;;;;;;5022723;28;20221;-63
2023/06/28 04:36:29;;;;;;;9.05;4.00;;;15.20;99.90;;;;;;5019821;28;20212;-63
2023/06/28 04:38:57;;;;;;;5.28;3.90;;;15.20;99.90;;;;;;4989416;28;20233;-63
2023/06/28 04:41:25;;;;;;;7.25;4.03;;;15.20;99.90;;;;;;5041102;28;20196;-63
2023/06/28 04:43:54;;;;;;;11.75;3.92;;;15.00;99.90;;;;;;5017163;28;20408;-63
2023/06/28 04:46:22;;;;;;;5.88;3.72;;;15.20;99.90;;;;;;5024680;28;20201;-64
2023/06/28 04:48:49;;;;;;;7.88;3.95;;;15.30;99.90;;;;;;5008824;28;20228;-64
2023/06/28 04:51:18;;;;;;;6.80;4.18;;;15.40;99.90;;;;;;5036119;28;20228;-63
2023/06/28 04:53:45;;;;;;;11.48;4.25;;;15.40;99.90;;;;;;5010605;28;20216;-64
2023/06/28 04:56:12;;;;;;;12.05;3.90;;;15.40;99.90;;;;;;5030344;28;20200;-63
2023/06/28 04:58:39;;;;;;;15.90;4.95;;;15.40;99.90;;;;;;5023344;28;20221;-64
2023/06/28 05:01:09;;;;;;;9.20;4.55;;;15.40;99.90;;;;;;4997030;28;20322;-63
2023/06/28 05:03:38;;;;;;;10.80;3.80;;;15.50;99.90;;;;;;5007735;28;20228;-64
2023/06/28 05:06:06;;;;;;;6.10;3.53;;;15.60;99.90;;;;;;5006255;28;20220;-63
2023/06/28 05:08:34;;;;;;;12.43;4.65;;;15.60;99.90;;;;;;5014713;28;20275;-63
2023/06/28 05:11:02;;;;;;;12.50;4.00;;;15.70;99.90;;;;;;5000506;28;20322;-63
2023/06/28 05:13:29;;;;;;;10.40;4.65;;;15.70;99.90;;;;;;5019598;28;20224;-63
2023/06/28 05:15:58;;;;;;;15.50;4.28;;;15.70;99.90;;;;;;5023352;28;20673;-64
2023/06/28 05:18:25;;;;;;;9.82;3.88;;;15.80;99.90;;;;;;5011958;28;20224;-64
2023/06/28 05:20:52;;;;;;;7.18;3.53;;;15.80;99.90;;;;;;5019425;28;20225;-63
2023/06/28 05:23:21;;;;;;;8.55;3.47;;;15.90;99.90;;;;;;5034217;28;20223;-63
2023/06/28 05:25:49;;;;;;;6.90;3.47;;;15.90;99.90;;;;;;5009424;28;20224;-64
2023/06/28 05:28:16;;;;;;;9.50;4.13;;;16.00;99.90;;;;;;5029504;28;20724;-64
2023/06/28 05:30:44;;;;;;;8.10;3.80;;;16.10;99.90;;;;;;5030857;28;20224;-63
2023/06/28 05:33:11;;;;;;;8.40;4.38;;;16.20;99.90;;;;;;5025198;28;20224;-64
2023/06/28 05:35:38;;;;;;;7.30;3.70;;;16.20;99.90;;;;;;5038160;28;20468;-64
2023/06/28 05:38:06;;;;;;;11.40;4.43;;;16.30;99.90;;;;;;5027179;28;20207;-63
2023/06/28 05:40:33;;;;;;;9.77;3.75;;;16.40;99.90;;;;;;5013534;28;20213;-63
2023/06/28 05:43:02;;;;;;;7.28;3.63;;;16.40;99.90;;;;;;5029484;28;20231;-63
2023/06/28 05:45:30;;;;;;;9.85;3.75;;;16.40;99.90;;;;;;5030471;28;20220;-63
2023/06/28 05:47:58;;;;;;;16.92;4.88;;;16.50;99.90;;;;;;5045849;28;20201;-63
2023/06/28 05:50:25;;;;;;;9.18;3.67;;;16.60;99.90;;;;;;5030195;28;20463;-64
2023/06/28 05:52:52;;;;;;;9.77;3.95;;;16.60;99.90;;;;;;5027808;28;20212;-63
2023/06/28 05:55:19;;;;;;;12.00;4.32;;;16.70;99.90;;;;;;5038368;28;20878;-64
2023/06/28 05:57:46;;;;;;;9.80;3.75;;;16.70;99.90;;;;;;5011485;28;20209;-63
2023/06/28 06:00:16;;;;;;;12.15;4.15;;;17.70;99.90;;;;;;5029065;28;20210;-64
2023/06/28 06:02:42;;;;;;;16.10;3.40;;;16.70;99.90;;;;;;5042805;28;20204;-63
2023/06/28 06:05:13;;;;;;;13.13;3.55;;;16.80;99.90;;;;;;5026811;28;20901;-64
2023/06/28 06:07:40;;;;;;;9.27;3.40;;;16.80;99.90;;;;;;5031627;28;20624;-64
2023/06/28 06:10:09;;;;;;;5.45;3.20;;;16.90;99.90;;;;;;5016272;28;20225;-64
2023/06/28 06:12:36;;;;;;;17.48;3.78;;;17.00;99.90;;;;;;4998074;28;20216;-64
2023/06/28 06:15:04;;;;;;;7.63;2.90;;;17.10;99.90;;;;;;5024186;28;20787;-64
2023/06/28 06:17:32;;;;;;;8.57;3.38;;;17.00;99.90;;;;;;5016577;28;20228;-63
2023/06/28 06:20:00;;;;;;;9.18;2.88;;;17.20;99.90;;;;;;5035088;28;20585;-64
2023/06/28 06:22:27;;;;;;;7.97;2.78;;;17.20;99.90;;;;;;5029790;28;20207;-63
2023/06/28 06:24:54;;;;;;;8.05;2.70;;;;;;;;;;5021918;28;21499;-64
2023/06/28 06:27:21;;;;;;;10.23;2.90;;;17.20;99.90;;;;;;5009559;28;20205;-64
2023/06/28 06:29:48;;;;;;;13.10;2.72;;;17.30;99.90;;;;;;5024388;28;20209;-64
2023/06/28 06:32:15;;;;;;;5.47;2.67;;;17.30;99.90;;;;;;5011446;28;20220;-63
2023/06/28 06:34:45;;;;;;;7.40;2.35;;;17.40;99.90;;;;;;5024795;28;20361;-64
2023/06/28 06:37:12;;;;;;;5.80;2.03;;;17.50;99.90;;;;;;5013285;28;20582;-63
2023/06/28 06:39:40;;;;;;;4.43;2.35;;;17.50;99.90;;;;;;5028354;28;20705;-63
2023/06/28 06:42:07;;;;;;;4.30;1.90;;;17.50;99.90;;;;;;5029872;28;20619;-64
2023/06/28 06:44:34;;;;;;;4.18;2.22;;;17.50;99.90;;;;;;5004980;28;20270;-63
2023/06/28 06:47:00;;;;;;;5.25;2.63;;;17.60;99.90;;;;;;5033445;28;20201;-63
2023/06/28 06:49:27;;;;;;;5.53;1.90;;;17.70;99.90;;;;;;5025155;28;20225;-63
2023/06/28 06:51:55;;;;;;;4.07;1.85;;;17.60;99.90;;;;;;5029987;28;20900;-63
2023/06/28 06:54:24;;;;;;;5.70;2.00;;;17.60;99.90;;;;;;5021602;28;20737;-63
2023/06/28 06:56:51;;;;;;;4.80;1.90;;;17.80;99.90;;;;;;5036313;28;20230;-64
2023/06/28 06:59:19;;;;;;;3.55;1.70;;;17.70;99.90;;;;;;5006849;28;20798;-64
2023/06/28 07:01:46;;;;;;;5.97;2.00;;;17.80;99.90;;;;;;5043138;28;20203;-64
2023/06/28 07:04:13;;;;;;;2.65;1.40;;;17.80;99.90;;;;;;5033182;28;20207;-64
2023/06/28 07:06:40;;;;;;;2.10;1.50;;;17.90;99.90;;;;;;5036884;28;20225;-63
2023/06/28 07:09:08;;;;;;;4.13;1.90;;;17.90;99.90;;;;;;5010477;28;20200;-64
2023/06/28 07:11:35;;;;;;;4.65;1.30;;;17.90;99.90;;;;;;5030651;28;20224;-64
2023/06/28 07:14:01;;;;;;;5.85;1.27;;;17.90;99.90;;;;;;5020883;28;20225;-64
2023/06/28 07:16:28;;;;;;;2.90;1.65;;;18.00;99.90;;;;;;5017893;28;20210;-64
2023/06/28 07:18:55;;;;;;;4.22;1.58;;;18.10;99.90;;;;;;5036238;28;20228;-64
2023/06/28 07:21:22;;;;;;;3.83;1.55;;;18.00;99.90;;;;;;5048473;28;20299;-64
2023/06/28 07:23:49;;;;;;;3.40;1.20;;;18.10;99.90;;;;;;5018394;28;20213;-63
2023/06/28 07:26:20;;;;;;;2.30;1.20;;;18.20;99.90;;;;;;5023459;28;21274;-64
2023/06/28 07:28:46;;;;;;;3.50;1.27;;;18.20;99.90;;;;;;5046608;28;20197;-65
2023/06/28 07:31:13;;;;;;;2.03;1.35;;;18.20;99.90;;;;;;5004309;28;20792;-64
2023/06/28 07:33:41;;;;;;;2.33;1.40;;;18.30;99.90;;;;;;5046127;28;21007;-63
2023/06/28 07:36:07;;;;;;;4.43;1.45;;;18.40;99.90;;;;;;5031858;28;20207;-64
2023/06/28 07:38:34;;;;;;;4.15;1.30;;;18.40;99.90;;;;;;5035811;28;20768;-64
2023/06/28 07:41:01;;;;;;;6.18;1.50;;;18.40;99.90;;;;;;5024373;28;20227;-64
2023/06/28 07:43:29;;;;;;;2.95;1.30;;;18.40;99.90;;;;;;5048248;28;20196;-64
2023/06/28 07:45:59;;;;;;;3.50;1.42;;;18.40;99.90;;;;;;5035980;28;20228;-64
2023/06/28 07:48:25;;;;;;;2.65;1.35;;;18.50;99.90;;;;;;5016575;28;20579;-63
2023/06/28 07:50:52;;;;;;;2.38;1.17;;;18.50;99.90;;;;;;5034542;28;20209;-64
2023/06/28 07:53:19;;;;;;;6.97;1.63;;;18.50;99.90;;;;;;5037809;28;20663;-64
2023/06/28 07:55:46;;;;;;;2.90;1.30;;;18.40;99.90;;;;;;5038592;28;20201;-64
2023/06/28 07:58:13;;;;;;;2.70;1.33;;;18.50;99.90;;;;;;5033234;28;20224;-63
2023/06/28 08:00:41;;;;;;;4.70;1.35;;;18.60;99.90;;;;;;5033356;28;20687;-63
2023/06/28 08:03:07;;;;;;;5.05;1.50;;;18.50;99.90;;;;;;5009316;28;20209;-63
2023/06/28 08:05:34;;;;;;;4.97;1.33;;;18.50;99.90;;;;;;5028283;28;20224;-64
2023/06/28 08:08:01;;;;;;;2.50;1.52;;;18.60;99.90;;;;;;5041206;28;20208;-63
2023/06/28 08:10:28;;;;;;;3.80;1.50;;;18.50;99.90;;;;;;5034581;28;20205;-63
2023/06/28 08:12:55;;;;;;;3.67;1.40;;;18.50;99.90;;;;;;5029541;28;20212;-64
2023/06/28 08:15:22;;;;;;;4.43;1.40;;;18.50;99.90;;;;;;5032392;28;20307;-63
2023/06/28 08:17:50;;;;;;;7.20;1.50;;;18.50;99.90;;;;;;5023853;28;20209;-64
2023/06/28 08:20:17;;;;;;;3.28;1.40;;;18.50;99.90;;;;;;5004419;28;20224;-63
2023/06/28 08:22:44;;;;;;;3.03;1.27;;;18.50;99.90;;;;;;5018829;28;20228;-64
2023/06/28 08:25:11;;;;;;;2.92;1.63;;;18.60;99.90;;;;;;5021380;28;20236;-64
2023/06/28 08:27:38;;;;;;;2.60;1.30;;;18.60;99.90;;;;;;4992340;28;20212;-64
2023/06/28 08:30:05;;;;;;;2.20;1.15;;;18.80;99.90;;;;;;5040114;28;20202;-64
2023/06/28 08:32:34;;;;;;;4.00;0.95;;;17.50;99.90;;;;;;5016002;28;20208;-63
2023/06/28 08:35:04;;;;;;;3.55;1.98;;;18.80;99.90;;;;;;5005816;28;20216;-65
2023/06/28 08:37:32;;;;;;;2.42;1.38;;;18.90;99.90;;;;;;5018300;28;20472;-64
2023/06/28 08:39:59;;;;;;;6.68;1.35;;;18.80;99.90;;;;;;5031505;28;20673;-64
2023/06/28 08:42:27;;;;;;;6.93;1.73;;;18.90;99.90;;;;;;5016161;28;20201;-64
2023/06/28 08:44:57;;;;;;;4.10;1.70;;;18.90;99.90;;;;;;5030943;28;20788;-63
2023/06/28 08:47:28;;;;;;;3.92;1.90;;;19.10;99.90;;;;;;5024043;28;20205;-63
2023/06/28 08:49:55;;;;;;;4.07;1.42;;;19.20;99.90;;;;;;5006303;28;20220;-64
2023/06/28 08:52:24;;;;;;;3.47;1.33;;;19.20;99.90;;;;;;5027164;28;20216;-64
2023/06/28 08:54:52;;;;;;;3.20;1.30;;;19.20;99.90;;;;;;5035867;28;20200;-63
2023/06/28 08:57:19;;;;;;;4.30;1.15;;;19.20;99.90;;;;;;5025668;28;20224;-64
2023/06/28 08:59:46;;;;;;;2.47;1.00;;;19.10;99.90;;;;;;5023804;28;20216;-63
2023/06/28 09:02:18;;;;;;;3.30;1.92;;;19.20;99.90;;;;;;5026348;28;20709;-64
2023/06/28 09:04:46;;;;;;;2.85;1.30;;;19.20;99.90;;;;;;5005083;28;20275;-64
2023/06/28 09:07:16;;;;;;;4.43;1.80;;;19.20;99.90;;;;;;5035040;28;20223;-64
2023/06/28 09:09:46;;;;;;;1.88;1.30;;;19.30;99.90;;;;;;5022422;28;21654;-63
2023/06/28 09:12:13;;;;;;;4.03;1.95;;;19.30;99.90;;;;;;5040712;28;20220;-63
2023/06/28 09:14:40;;;;;;;2.75;1.70;;;19.40;99.90;;;;;;5018161;28;20669;-64
2023/06/28 09:17:07;;;;;;;7.78;2.13;;;19.40;99.90;;;;;;5039814;28;20234;-64
2023/06/28 09:19:34;;;;;;;3.30;1.85;;;19.60;99.90;;;;;;5025825;28;20197;-64
2023/06/28 09:22:04;;;;;;;2.40;1.55;;;19.60;99.90;;;;;;5007186;28;21115;-64
2023/06/28 09:24:34;;;;;;;4.18;1.35;;;19.70;99.90;;;;;;5028727;28;20225;-64
2023/06/28 09:27:04;;;;;;;4.35;2.10;;;19.60;99.90;;;;;;5046379;28;20641;-64
2023/06/28 09:29:31;;;;;;;9.05;1.52;;;19.70;99.90;;;;;;5020817;28;20192;-64
2023/06/28 09:31:58;;;;;;;3.80;1.50;;;19.80;99.90;;;;;;5025443;28;20212;-64
2023/06/28 09:34:25;;;;;;;1.90;1.30;;;19.80;99.90;;;;;;5019634;28;20215;-64
2023/06/28 09:36:52;;;;;;;4.15;1.75;;;19.90;99.90;;;;;;5008523;28;20209;-64
2023/06/28 09:39:20;;;;;;;1.83;1.52;;;20.00;99.90;;;;;;5035385;28;20294;-64
2023/06/28 09:41:48;;;;;;;2.92;1.40;;;19.90;99.90;;;;;;5037175;28;20899;-64
2023/06/28 09:44:26;;;;;;;3.60;1.58;;;19.90;99.90;;;;;;5022262;28;20228;-64
2023/06/28 09:47:01;;;;;;;2.83;1.40;;;19.80;99.90;;;;;;5025368;28;20219;-63
2023/06/28 09:49:28;;;;;;;3.58;2.10;;;19.80;99.90;;;;;;5028043;28;20242;-64
2023/06/28 09:52:00;;;;;;;3.35;1.27;;;19.80;99.90;;;;;;5010760;28;20208;-64
2023/06/28 09:54:31;;;;;;;3.35;1.70;;;19.80;99.90;;;;;;5034805;28;20678;-64
2023/06/28 09:56:58;;;;;;;3.88;1.35;;;19.80;99.90;;;;;;5031287;28;20892;-63
2023/06/28 09:59:28;;;;;;;6.47;1.55;;;19.80;99.90;;;;;;5030718;28;20221;-63
2023/06/28 10:01:58;;;;;;;5.38;1.60;;;19.80;99.90;;;;;;5024947;28;20208;-64
2023/06/28 10:04:27;;;;;;;3.90;1.48;;;19.90;99.90;;;;;;5039368;28;20193;-64
2023/06/28 10:06:59;;;;;;;5.70;1.73;;;19.80;99.90;;;;;;5008594;28;20985;-64
2023/06/28 10:09:28;;;;;;;3.08;1.58;;;19.80;99.90;;;;;;5040721;28;20737;-64
2023/06/28 10:11:57;;;;;;;2.90;1.52;;;19.90;99.90;;;;;;5029554;28;20200;-64
2023/06/28 10:14:30;;;;;;;2.42;1.30;;;19.90;99.90;;;;;;5043440;28;20197;-64
2023/06/28 10:17:00;;;;;;;2.15;1.17;;;19.90;99.90;;;;;;5020705;28;20204;-64
2023/06/28 10:19:27;;;;;;;2.55;1.35;;;19.90;99.90;;;;;;5043288;28;20216;-64
2023/06/28 10:21:56;;;;;;;5.72;1.60;;;20.00;99.90;;;;;;5009469;28;20726;-64
2023/06/28 10:24:23;;;;;;;2.05;1.70;;;20.00;99.90;;;;;;5035353;28;20672;-64
2023/06/28 10:26:50;;;;;;;3.97;1.70;;;20.00;99.90;;;;;;5018857;28;20249;-63
2023/06/28 10:29:19;;;;;;;5.18;1.48;;;20.10;99.90;;;;;;5026090;28;20225;-64
2023/06/28 10:31:48;;;;;;;2.95;1.45;;;20.10;99.90;;;;;;5023593;28;20201;-64
2023/06/28 10:34:16;;;;;;;5.88;1.95;;;20.10;99.90;;;;;;5051476;28;20208;-63
2023/06/28 10:36:43;;;;;;;2.45;1.63;;;20.10;99.90;;;;;;5034335;28;20204;-63
2023/06/28 10:39:10;;;;;;;3.97;1.50;;;20.10;99.90;;;;;;5017894;28;20208;-64
2023/06/28 10:41:38;;;;;;;4.43;1.77;;;20.10;99.90;;;;;;5045853;28;20193;-64
2023/06/28 10:44:06;;;;;;;3.80;2.00;;;20.10;99.90;;;;;;5022250;28;20201;-64
2023/06/28 10:46:33;;;;;;;3.33;1.70;;;20.10;99.90;;;;;;5019253;28;20239;-64
2023/06/28 10:49:03;;;;;;;7.35;1.92;;;20.10;99.90;;;;;;5033668;28;20208;-64
2023/06/28 10:51:32;;;;;;;6.63;2.22;;;20.10;99.90;;;;;;5038248;28;20192;-64
2023/06/28 10:54:07;;;;;;;7.97;1.90;;;20.10;99.90;;;;;;5020863;28;20233;-64
2023/06/28 10:56:38;;;;;;;3.70;1.92;;;20.10;99.90;;;;;;5028512;28;20204;-65
2023/06/28 10:59:08;;;;;;;4.75;2.20;;;19.40;99.90;;;;;;5021234;28;20216;-65
2023/06/28 11:01:53;;;;;;;2.38;1.60;;;20.00;99.90;;;;;;5028991;28;20227;-64
2023/06/28 11:04:23;;;;;;;4.25;1.70;;;20.00;99.90;;;;;;5019458;28;20625;-64
2023/06/28 11:07:09;;;;;;;6.70;2.08;;;19.90;99.90;;;;;;5033313;28;20237;-64
2023/06/28 11:09:36;;;;;;;4.03;1.67;;;19.80;99.90;;;;;;5007647;28;20225;-64
2023/06/28 11:12:04;;;;;;;4.93;1.83;;;19.80;99.90;;;;;;5041886;28;20354;-64
2023/06/28 11:14:32;;;;;;;2.50;1.80;;;19.80;99.90;;;;;;5026438;28;20224;-64
2023/06/28 11:17:01;;;;;;;3.75;1.75;;;19.70;99.90;;;;;;5015091;28;20221;-64
2023/06/28 11:19:30;;;;;;;5.13;2.00;;;19.70;99.90;;;;;;5017899;28;20264;-64
2023/06/28 11:21:57;;;;;;;1.98;1.60;;;19.70;99.90;;;;;;5035710;28;20205;-64
2023/06/28 11:24:43;;;;;;;3.17;1.67;;;19.80;99.90;;;;;;5019136;28;20786;-65
2023/06/28 11:27:12;;;;;;;3.17;1.98;;;19.80;99.90;;;;;;5044422;28;20228;-63
2023/06/28 11:29:56;;;;;;;6.93;2.10;;;19.80;99.90;;;;;;5037535;28;20670;-64
2023/06/28 11:32:26;;;;;;;1.92;1.48;;;19.80;99.90;;;;;;5026640;28;21215;-65
2023/06/28 11:34:57;;;;;;;6.20;1.77;;;19.80;99.90;;;;;;5038690;28;20209;-65
2023/06/28 11:37:24;;;;;;;3.00;1.80;;;19.80;99.90;;;;;;5033590;28;20197;-64
2023/06/28 11:39:51;;;;;;;2.58;1.80;;;19.70;99.90;;;;;;5019393;28;20204;-65
2023/06/28 11:42:19;;;;;;;2.70;2.33;;;19.70;99.90;;;;;;5044769;28;20751;-65
2023/06/28 11:44:47;;;;;;;3.20;1.95;;;19.70;99.90;;;;;;5047362;28;20246;-65
2023/06/28 11:47:14;;;;;;;5.30;2.35;;;19.80;99.90;;;;;;5019690;28;20232;-64
2023/06/28 11:49:41;;;;;;;2.33;1.70;;;19.80;99.90;;;;;;5033094;28;20217;-64
2023/06/28 11:52:10;;;;;;;2.40;1.80;;;19.80;99.90;;;;;;5030651;28;20274;-64
2023/06/28 11:54:37;;;;;;;4.53;2.35;;;19.80;99.90;;;;;;5033288;28;20204;-65
2023/06/28 11:57:04;;;;;;;5.90;2.25;;;19.60;99.90;;;;;;5013681;28;20212;-64
2023/06/28 11:59:31;;;;;;;5.50;2.22;;;19.80;99.90;;;;;;5042449;28;20192;-65
2023/06/28 12:02:03;;;;;;;6.05;2.15;;;19.80;99.90;;;;;;5030538;28;20215;-65
2023/06/28 12:04:31;;;;;;;3.92;2.35;;;20.00;99.90;;;;;;5025972;28;20351;-65
2023/06/28 12:07:01;;;;;;;6.13;2.28;;;20.00;99.90;;;;;;5036970;28;20232;-65
2023/06/28 12:09:30;;;;;;;5.10;2.20;;;20.00;99.90;;;;;;5026247;28;20189;-64
2023/06/28 12:12:02;;;;;;;3.42;2.30;;;20.00;99.90;;;;;;5014897;28;20212;-64
2023/06/28 12:14:30;;;;;;;2.60;2.20;;;20.10;99.90;;;;;;5039724;28;20252;-65
2023/06/28 12:16:58;;;;;;;4.70;2.55;;;20.10;99.90;;;;;;5033360;28;20204;-65
2023/06/28 12:19:27;;;;;;;3.53;2.40;;;20.00;99.90;;;;;;5017700;28;20240;-64
2023/06/28 12:21:56;;;;;;;5.57;2.25;;;20.00;99.90;;;;;;5046193;28;20197;-65
2023/06/28 12:24:24;;;;;;;7.13;3.08;;;20.00;99.90;;;;;;5017240;28;20212;-64
2023/06/28 12:26:55;;;;;;;8.77;2.80;;;20.00;99.90;;;;;;5018530;28;20656;-64
2023/06/28 12:29:23;;;;;;;5.03;2.90;;;20.10;99.90;;;;;;5028854;28;20230;-64
2023/06/28 12:31:52;;;;;;;6.93;2.85;;;20.10;99.90;;;;;;5042078;28;20205;-64
2023/06/28 12:34:23;;;;;;;7.70;2.65;;;20.20;99.90;;;;;;5014805;28;20193;-65
2023/06/28 12:36:53;;;;;;;5.05;2.60;;;20.20;99.90;;;;;;5034921;28;20209;-65
2023/06/28 12:39:22;;;;;;;5.18;2.45;;;20.30;99.90;;;;;;5016213;28;20205;-65
2023/06/28 12:42:01;;;;;;;4.38;2.40;;;20.30;99.90;;;;;;4994378;28;20236;-64
2023/06/28 12:44:28;;;;;;;7.25;2.85;;;20.40;99.90;;;;;;5042354;28;20189;-64
2023/06/28 12:46:55;;;;;;;5.35;2.50;;;20.40;99.90;;;;;;5033725;28;20865;-64
2023/06/28 12:49:23;;;;;;;4.78;2.70;;;20.40;99.90;;;;;;5023945;28;20558;-64